Time;durP1;ratioP1;P1;durP2;ratioP2;P2;SDS_P1;SDS_P2;PMS_P1;PMS_P2;Temp;Humidity;BMP_temperature;BMP_pressure;BME280_temperature;BME280_humidity;BME280_pressure;Samples;Min_cycle;Max_cycle;Signal;HPM_P1;HPM_P2
2021/04/03 00:00:10;;;;;;;0.87;0.87;;;6.50;99.90;;;;;;4984966;28;20226;-89
2021/04/03 00:02:35;;;;;;;3.53;3.10;;;6.60;99.90;;;;;;4982408;28;20223;-88
2021/04/03 00:05:02;;;;;;;3.13;1.00;;;6.60;99.90;;;;;;4983189;28;20560;-90
2021/04/03 00:07:27;;;;;;;0.50;0.50;;;6.60;99.90;;;;;;4968125;28;20203;-87
2021/04/03 00:09:53;;;;;;;2.33;2.10;;;6.60;99.90;;;;;;4949438;28;20279;-91
2021/04/03 00:12:19;;;;;;;2.07;1.97;;;6.60;99.90;;;;;;4949684;28;20693;-89
2021/04/03 00:14:47;;;;;;;1.70;1.17;;;6.60;99.90;;;;;;4984256;28;20219;-90
2021/04/03 00:17:13;;;;;;;4.53;1.03;;;6.60;99.90;;;;;;4984139;28;20491;-89
2021/04/03 00:19:39;;;;;;;6.70;1.93;;;6.60;99.90;;;;;;4999827;28;20219;-89
2021/04/03 00:22:05;;;;;;;2.50;0.97;;;6.50;99.90;;;;;;4968878;28;20196;-90
2021/04/03 00:24:31;;;;;;;0.67;0.67;;;6.50;99.90;;;;;;4984332;28;20227;-89
2021/04/03 00:26:57;;;;;;;9.13;1.33;;;6.50;99.90;;;;;;4984441;28;20234;-89
2021/04/03 00:29:22;;;;;;;1.23;0.63;;;6.50;99.90;;;;;;4976575;28;20732;-89
2021/04/03 00:31:48;;;;;;;4.37;0.77;;;6.40;99.90;;;;;;4986297;28;20632;-88
2021/04/03 00:34:14;;;;;;;0.70;0.70;;;6.40;99.90;;;;;;4953397;28;20203;-88
2021/04/03 00:36:40;;;;;;;12.17;2.17;;;6.40;99.90;;;;;;4988981;28;20611;-89
2021/04/03 00:39:05;;;;;;;1.93;1.83;;;6.30;99.90;;;;;;4996582;28;20726;-90
2021/04/03 00:41:32;;;;;;;0.40;0.40;;;6.30;99.90;;;;;;4971240;28;20226;-89
2021/04/03 00:43:57;;;;;;;1.43;0.77;;;6.40;99.90;;;;;;4983354;28;20227;-90
2021/04/03 00:46:23;;;;;;;2.37;1.83;;;6.40;99.90;;;;;;4985009;28;20199;-90
2021/04/03 00:48:49;;;;;;;0.73;0.47;;;6.50;99.90;;;;;;4971372;28;20203;-87
2021/04/03 00:51:15;;;;;;;3.60;0.93;;;6.40;99.90;;;;;;4954204;28;20219;-88
2021/04/03 00:53:40;;;;;;;14.67;1.20;;;6.40;99.90;;;;;;4971390;28;20238;-88
2021/04/03 00:56:07;;;;;;;1.53;1.43;;;6.50;99.90;;;;;;4986818;28;20223;-89
2021/04/03 00:58:33;;;;;;;4.37;1.57;;;6.50;99.90;;;;;;5004178;28;20673;-88
2021/04/03 01:01:01;;;;;;;2.20;1.40;;;6.40;99.90;;;;;;4970706;28;20198;-87
2021/04/03 01:03:26;;;;;;;4.47;1.40;;;6.30;99.90;;;;;;5002504;28;20230;-87
2021/04/03 01:05:52;;;;;;;3.20;2.73;;;6.40;99.90;;;;;;4969528;28;20223;-89
2021/04/03 01:08:18;;;;;;;2.07;0.97;;;6.40;99.90;;;;;;4954288;28;20269;-87
2021/04/03 01:10:49;;;;;;;7.03;2.40;;;6.50;99.90;;;;;;4970378;28;20625;-88
2021/04/03 01:13:20;;;;;;;12.93;3.87;;;6.40;99.90;;;;;;5004318;28;20223;-87
2021/04/03 01:16:01;;;;;;;3.33;1.17;;;6.40;99.90;;;;;;4998619;28;20180;-87
2021/04/03 01:18:39;;;;;;;0.57;0.57;;;6.40;99.90;;;;;;4995998;28;20298;-88
2021/04/03 01:21:24;;;;;;;1.97;1.17;;;6.50;99.90;;;;;;5003857;28;20223;-88
2021/04/03 01:24:14;;;;;;;5.60;1.30;;;6.50;99.90;;;;;;5002279;28;20246;-89
2021/04/03 01:26:49;;;;;;;10.40;2.97;;;6.50;99.90;;;;;;5001749;28;20916;-87
2021/04/03 01:29:43;;;;;;;0.30;0.30;;;6.50;99.90;;;;;;4986218;28;20569;-90
2021/04/03 01:32:09;;;;;;;1.00;1.00;;;6.50;99.90;;;;;;5001941;28;20299;-87
2021/04/03 01:34:40;;;;;;;13.53;2.47;;;6.40;99.90;;;;;;4986326;28;20257;-88
2021/04/03 01:37:10;;;;;;;7.23;2.27;;;6.40;99.90;;;;;;4987159;28;20199;-88
2021/04/03 01:39:37;;;;;;;4.20;0.73;;;6.40;99.90;;;;;;4986746;28;20226;-89
2021/04/03 01:42:07;;;;;;;5.40;1.50;;;6.40;99.90;;;;;;4984487;28;20212;-88
2021/04/03 01:44:42;;;;;;;7.60;2.07;;;6.40;99.90;;;;;;4993484;28;20219;-89
2021/04/03 01:47:08;;;;;;;5.60;1.57;;;6.40;99.90;;;;;;5002030;28;20215;-88
2021/04/03 01:49:36;;;;;;;5.37;2.07;;;6.40;99.90;;;;;;4986533;28;20215;-90
2021/04/03 01:52:03;;;;;;;6.73;2.63;;;6.30;99.90;;;;;;5005698;28;20199;-88
2021/04/03 01:54:29;;;;;;;8.20;2.07;;;6.30;99.90;;;;;;4985934;28;20223;-91
2021/04/03 01:56:57;;;;;;;3.30;1.10;;;6.30;99.90;;;;;;4978543;28;20268;-91
2021/04/03 01:59:24;;;;;;;4.50;2.10;;;6.20;99.90;;;;;;4987040;28;20218;-88
2021/04/03 02:01:54;;;;;;;12.83;1.53;;;6.20;99.90;;;;;;4984883;28;20310;-89
2021/04/03 02:04:22;;;;;;;10.03;1.53;;;6.30;99.90;;;;;;4986023;28;20656;-88
2021/04/03 02:06:48;;;;;;;0.83;0.80;;;6.30;99.90;;;;;;5003748;28;20187;-91
2021/04/03 02:09:15;;;;;;;3.10;1.93;;;6.30;99.90;;;;;;4969754;28;20218;-87
2021/04/03 02:11:47;;;;;;;18.53;2.63;;;6.30;99.90;;;;;;5004141;28;20207;-88
2021/04/03 02:14:15;;;;;;;4.30;1.20;;;6.20;99.90;;;;;;5003358;28;20235;-87
2021/04/03 02:16:42;;;;;;;5.67;1.83;;;6.20;99.90;;;;;;4977827;28;20223;-89
2021/04/03 02:19:10;;;;;;;4.63;0.60;;;6.20;99.90;;;;;;5005297;28;20183;-90
2021/04/03 02:21:38;;;;;;;5.70;0.70;;;6.10;99.90;;;;;;4986035;28;20219;-91
2021/04/03 02:24:04;;;;;;;5.20;1.37;;;6.20;99.90;;;;;;4985353;28;20223;-89
2021/04/03 02:26:31;;;;;;;1.13;0.87;;;6.20;99.90;;;;;;4985272;28;20223;-90
2021/04/03 02:28:58;;;;;;;2.73;1.00;;;6.10;99.90;;;;;;4985450;28;20281;-90
2021/04/03 02:31:29;;;;;;;2.17;1.27;;;6.20;99.90;;;;;;5000071;28;20191;-88
2021/04/03 02:33:55;;;;;;;3.20;1.73;;;6.20;99.90;;;;;;4982674;28;20211;-90
2021/04/03 02:36:21;;;;;;;7.90;1.80;;;6.30;99.90;;;;;;4979829;28;20636;-89
2021/04/03 02:38:51;;;;;;;5.57;2.33;;;6.20;99.90;;;;;;4984071;28;20219;-89
2021/04/03 02:41:44;;;;;;;1.33;1.23;;;6.10;99.90;;;;;;5000166;28;20215;-88
2021/04/03 02:44:30;;;;;;;8.77;1.63;;;6.10;99.90;;;;;;4996992;28;20211;-89
2021/04/03 02:47:08;;;;;;;1.43;1.33;;;6.10;99.90;;;;;;5002582;28;20222;-89
2021/04/03 02:49:57;;;;;;;9.03;1.40;;;6.10;99.90;;;;;;4982736;28;20233;-90
2021/04/03 02:52:25;;;;;;;1.97;1.90;;;6.10;99.90;;;;;;4982042;28;20648;-90
2021/04/03 02:54:51;;;;;;;24.27;2.23;;;6.20;99.90;;;;;;4965937;28;20192;-90
2021/04/03 02:57:19;;;;;;;16.97;3.03;;;6.10;99.90;;;;;;4958662;28;20698;-90
2021/04/03 02:59:50;;;;;;;4.37;1.70;;;6.10;99.90;;;;;;4949163;28;20226;-90
2021/04/03 03:02:19;;;;;;;1.03;0.90;;;6.00;99.90;;;;;;4978449;28;20392;-88
2021/04/03 03:04:46;;;;;;;8.20;1.53;;;6.20;99.90;;;;;;4982807;28;20825;-90
2021/04/03 03:07:13;;;;;;;0.60;0.60;;;6.20;99.90;;;;;;4998200;28;20253;-88
2021/04/03 03:09:41;;;;;;;3.40;1.17;;;6.20;99.90;;;;;;4978794;28;20230;-89
2021/04/03 03:12:12;;;;;;;20.17;1.53;;;6.10;99.90;;;;;;4984544;28;20219;-88
2021/04/03 03:14:40;;;;;;;1.13;1.13;;;6.00;99.90;;;;;;4982985;28;20219;-89
2021/04/03 03:17:09;;;;;;;1.27;1.27;;;6.10;99.90;;;;;;4981868;28;20330;-88
2021/04/03 03:19:36;;;;;;;8.40;2.23;;;6.10;99.90;;;;;;4967671;28;20319;-90
2021/04/03 03:22:03;;;;;;;2.00;1.70;;;6.20;99.90;;;;;;4987298;28;20251;-88
2021/04/03 03:24:30;;;;;;;5.07;1.17;;;6.20;99.90;;;;;;4968171;28;20225;-87
2021/04/03 03:26:57;;;;;;;3.93;1.43;;;6.20;99.90;;;;;;4963832;28;20227;-88
2021/04/03 03:29:25;;;;;;;14.93;1.50;;;6.20;99.90;;;;;;5000526;28;20250;-89
2021/04/03 03:31:51;;;;;;;2.17;1.67;;;6.10;99.90;;;;;;4985621;28;20250;-90
2021/04/03 03:34:17;;;;;;;6.83;1.53;;;6.00;99.90;;;;;;4968505;28;20211;-88
2021/04/03 03:36:43;;;;;;;8.97;1.60;;;6.00;99.90;;;;;;4969822;28;20242;-90
2021/04/03 03:39:09;;;;;;;5.50;2.63;;;6.00;99.90;;;;;;5002773;28;21044;-88
2021/04/03 03:41:35;;;;;;;0.53;0.53;;;6.10;99.90;;;;;;4962582;28;20236;-87
2021/04/03 03:44:05;;;;;;;15.40;2.03;;;6.10;99.90;;;;;;4952930;28;20219;-89
2021/04/03 03:46:31;;;;;;;0.93;0.93;;;6.10;99.90;;;;;;4984416;28;20227;-88
2021/04/03 03:48:57;;;;;;;1.43;0.60;;;6.10;99.90;;;;;;4953139;28;20322;-88
2021/04/03 03:51:23;;;;;;;10.43;1.50;;;6.20;99.90;;;;;;4968750;28;20284;-89
2021/04/03 03:53:48;;;;;;;2.07;0.70;;;6.20;99.90;;;;;;4984287;28;20230;-88
2021/04/03 03:56:15;;;;;;;0.93;0.93;;;6.10;99.90;;;;;;4999471;28;20223;-88
2021/04/03 03:58:42;;;;;;;4.80;2.67;;;6.00;99.90;;;;;;4984312;28;20741;-87
2021/04/03 04:01:08;;;;;;;2.20;1.60;;;6.10;99.90;;;;;;5002600;28;20179;-87
2021/04/03 04:03:34;;;;;;;1.43;1.33;;;6.00;99.90;;;;;;4983867;28;20700;-89
2021/04/03 04:06:00;;;;;;;0.63;0.63;;;6.00;99.90;;;;;;4951344;28;20226;-88
2021/04/03 04:08:26;;;;;;;5.57;3.00;;;6.00;99.90;;;;;;4968859;28;20226;-89
2021/04/03 04:10:52;;;;;;;1.77;1.67;;;5.90;99.90;;;;;;4955249;28;20751;-89
2021/04/03 04:13:18;;;;;;;5.30;2.10;;;6.00;99.90;;;;;;4986782;28;20215;-88
2021/04/03 04:15:44;;;;;;;0.83;0.83;;;6.10;99.90;;;;;;5007302;28;20622;-88
2021/04/03 04:18:10;;;;;;;9.90;3.03;;;6.10;99.90;;;;;;4981213;28;20249;-89
2021/04/03 04:20:35;;;;;;;0.40;0.40;;;6.10;99.90;;;;;;5006412;28;20215;-88
2021/04/03 04:23:01;;;;;;;3.10;1.53;;;6.10;99.90;;;;;;4954993;28;20241;-90
2021/04/03 04:25:27;;;;;;;1.37;1.33;;;6.00;99.90;;;;;;4971629;28;20648;-89
2021/04/03 04:27:53;;;;;;;9.23;2.63;;;6.00;99.90;;;;;;4989461;28;20193;-88
2021/04/03 04:30:19;;;;;;;1.33;1.23;;;6.00;99.90;;;;;;4963950;28;20211;-89
2021/04/03 04:32:45;;;;;;;5.70;2.10;;;6.00;99.90;;;;;;4987045;28;20234;-87
2021/04/03 04:35:12;;;;;;;2.63;1.63;;;6.00;99.90;;;;;;4986738;28;20245;-88
2021/04/03 04:37:39;;;;;;;4.90;1.87;;;6.00;99.90;;;;;;4987146;28;20223;-89
2021/04/03 04:40:07;;;;;;;2.03;1.93;;;6.00;99.90;;;;;;4972561;28;20249;-90
2021/04/03 04:42:32;;;;;;;0.53;0.53;;;6.00;99.90;;;;;;4986739;28;20377;-88
2021/04/03 04:44:59;;;;;;;1.90;0.77;;;6.00;99.90;;;;;;4954563;28;20211;-89
2021/04/03 04:47:24;;;;;;;2.00;1.90;;;6.00;99.90;;;;;;4987074;28;21008;-88
2021/04/03 04:49:51;;;;;;;1.60;0.97;;;6.00;99.90;;;;;;4986544;28;20227;-89
2021/04/03 04:52:17;;;;;;;1.17;0.90;;;6.00;99.90;;;;;;4987398;28;20194;-88
2021/04/03 04:54:43;;;;;;;3.33;1.77;;;5.90;99.90;;;;;;4972766;28;21276;-89
2021/04/03 04:57:09;;;;;;;1.73;1.60;;;5.90;99.90;;;;;;4986652;28;20310;-88
2021/04/03 04:59:35;;;;;;;11.07;3.17;;;5.80;99.90;;;;;;4986705;28;20293;-89
2021/04/03 05:02:01;;;;;;;2.37;1.90;;;5.80;99.90;;;;;;4951974;28;20215;-89
2021/04/03 05:04:26;;;;;;;2.80;0.97;;;5.80;99.90;;;;;;5004650;28;20254;-91
2021/04/03 05:06:52;;;;;;;3.57;1.77;;;5.90;99.90;;;;;;4955062;28;20195;-87
2021/04/03 05:09:18;;;;;;;6.93;1.47;;;5.80;99.90;;;;;;4953772;28;20245;-89
2021/04/03 05:11:44;;;;;;;5.50;1.63;;;5.90;99.90;;;;;;4970170;28;20211;-89
2021/04/03 05:14:09;;;;;;;0.40;0.40;;;5.90;99.90;;;;;;4970993;28;20239;-88
2021/04/03 05:16:35;;;;;;;1.17;1.17;;;6.00;99.90;;;;;;4972933;28;20227;-88
2021/04/03 05:19:01;;;;;;;5.77;2.37;;;6.00;99.90;;;;;;4975065;28;20554;-91
2021/04/03 05:21:27;;;;;;;15.97;1.60;;;6.00;99.90;;;;;;4978250;28;20223;-91
2021/04/03 05:23:52;;;;;;;5.53;2.20;;;6.00;99.90;;;;;;4987269;28;20261;-89
2021/04/03 05:26:18;;;;;;;1.27;0.57;;;6.00;99.90;;;;;;4985215;28;20211;-88
2021/04/03 05:28:44;;;;;;;35.67;3.07;;;6.00;99.90;;;;;;4983687;28;20857;-89
2021/04/03 05:31:11;;;;;;;2.20;0.53;;;6.00;99.90;;;;;;4983038;28;20187;-86
2021/04/03 05:33:37;;;;;;;3.23;2.27;;;6.00;99.90;;;;;;4954590;28;20215;-89
2021/04/03 05:36:03;;;;;;;7.77;2.60;;;6.00;99.90;;;;;;4986034;28;20636;-87
2021/04/03 05:38:29;;;;;;;1.23;1.20;;;6.10;99.90;;;;;;4984654;28;20246;-90
2021/04/03 05:40:55;;;;;;;2.37;1.17;;;6.10;99.90;;;;;;4986413;28;20215;-90
2021/04/03 05:43:22;;;;;;;5.73;1.03;;;6.20;99.90;;;;;;5004687;28;20199;-88
2021/04/03 05:45:53;;;;;;;9.17;1.77;;;6.10;99.90;;;;;;4987563;28;20210;-89
2021/04/03 05:48:23;;;;;;;2.63;2.43;;;6.20;99.90;;;;;;4985824;28;20219;-89
2021/04/03 05:50:54;;;;;;;5.83;2.10;;;6.20;99.90;;;;;;4970004;28;20234;-86
2021/04/03 05:53:21;;;;;;;3.10;2.80;;;6.30;99.90;;;;;;4986562;28;20235;-86
2021/04/03 05:55:54;;;;;;;7.90;2.23;;;6.40;99.90;;;;;;5004584;28;20599;-86
2021/04/03 05:58:20;;;;;;;12.47;1.63;;;6.50;99.90;;;;;;4985205;28;20223;-86
2021/04/03 06:00:47;;;;;;;11.67;5.00;;;6.60;99.90;;;;;;5000359;28;20210;-87
2021/04/03 06:03:16;;;;;;;0.40;0.40;;;6.70;99.90;;;;;;4985190;28;20758;-90
2021/04/03 06:05:43;;;;;;;4.53;1.07;;;6.70;99.90;;;;;;4985601;28;20306;-87
2021/04/03 06:08:09;;;;;;;7.67;2.23;;;6.70;99.90;;;;;;5003881;28;20223;-89
2021/04/03 06:10:35;;;;;;;8.30;2.80;;;6.80;99.90;;;;;;5003241;28;20227;-88
2021/04/03 06:13:01;;;;;;;2.33;2.17;;;6.90;99.90;;;;;;4996922;28;20226;-87
2021/04/03 06:15:27;;;;;;;4.70;2.13;;;6.90;99.90;;;;;;5000286;28;20269;-88
2021/04/03 06:17:56;;;;;;;3.83;0.80;;;6.70;99.90;;;;;;5003913;28;21247;-90
2021/04/03 06:20:39;;;;;;;11.53;1.47;;;6.80;99.90;;;;;;4984811;28;20241;-90
2021/04/03 06:23:07;;;;;;;0.97;0.97;;;6.70;99.90;;;;;;5001641;28;20215;-90
2021/04/03 06:25:56;;;;;;;1.13;1.13;;;6.70;99.90;;;;;;4968613;28;20303;-88
2021/04/03 06:28:27;;;;;;;1.23;0.53;;;6.60;99.90;;;;;;5002636;28;20183;-86
2021/04/03 06:31:12;;;;;;;4.20;1.47;;;6.60;99.90;;;;;;4962964;28;20314;-88
2021/04/03 06:33:38;;;;;;;1.97;1.73;;;6.70;99.90;;;;;;5003632;28;20227;-89
2021/04/03 06:36:08;;;;;;;9.83;2.87;;;6.70;99.90;;;;;;4984159;28;20293;-88
2021/04/03 06:38:35;;;;;;;1.80;1.70;;;6.80;99.90;;;;;;5001531;28;20230;-90
2021/04/03 06:41:25;;;;;;;5.73;1.27;;;6.80;99.90;;;;;;4979594;28;20688;-89
2021/04/03 06:44:08;;;;;;;7.00;1.40;;;6.80;99.90;;;;;;5001941;28;20223;-91
2021/04/03 06:46:36;;;;;;;1.13;0.77;;;7.20;99.90;;;;;;4977848;28;20285;-90
2021/04/03 06:49:02;;;;;;;10.80;2.57;;;7.30;99.90;;;;;;4986623;28;20179;-88
2021/04/03 06:51:29;;;;;;;2.40;1.83;;;7.50;99.90;;;;;;4984452;28;20215;-87
2021/04/03 06:53:57;;;;;;;2.60;1.60;;;7.40;99.90;;;;;;5002896;28;20420;-87
2021/04/03 06:56:25;;;;;;;5.67;1.87;;;7.20;99.90;;;;;;5000139;28;20308;-91
2021/04/03 06:58:58;;;;;;;14.30;2.23;;;7.10;99.90;;;;;;5003226;28;20207;-88
2021/04/03 07:01:35;;;;;;;1.80;1.40;;;7.10;99.90;;;;;;4966709;28;20200;-89
2021/04/03 07:04:09;;;;;;;5.27;1.53;;;7.10;99.90;;;;;;4986046;28;20190;-85
2021/04/03 07:06:37;;;;;;;5.97;1.40;;;7.20;99.90;;;;;;5000284;28;20219;-83
2021/04/03 07:09:05;;;;;;;1.43;1.10;;;7.30;99.90;;;;;;5004221;28;20219;-88
2021/04/03 07:11:32;;;;;;;6.33;1.60;;;7.30;99.90;;;;;;5002401;28;20222;-93
2021/04/03 07:14:02;;;;;;;1.90;1.33;;;7.10;99.90;;;;;;4990991;28;20292;-89
2021/04/03 07:16:29;;;;;;;13.93;2.37;;;7.00;99.90;;;;;;4957060;28;20233;-91
2021/04/03 07:18:56;;;;;;;1.53;1.37;;;7.20;99.90;;;;;;4963787;28;20195;-92
2021/04/03 07:21:22;;;;;;;12.73;1.83;;;7.30;99.90;;;;;;4999118;28;20247;-91
2021/04/03 07:23:50;;;;;;;1.20;1.13;;;7.30;99.90;;;;;;4981934;28;20227;-90
2021/04/03 07:26:17;;;;;;;1.57;1.17;;;7.40;99.90;;;;;;4983209;28;20234;-92
2021/04/03 07:28:44;;;;;;;6.23;2.80;;;7.40;99.90;;;;;;4968498;28;20354;-92
2021/04/03 07:31:30;;;;;;;6.57;1.77;;;7.40;99.90;;;;;;4983967;28;20313;-89
2021/04/03 07:33:57;;;;;;;2.93;1.53;;;7.80;99.90;;;;;;4988718;28;20219;-91
2021/04/03 07:36:35;;;;;;;6.93;2.43;;;7.90;99.90;;;;;;4941987;28;20237;-92
2021/04/03 07:39:02;;;;;;;10.40;1.87;;;8.10;99.90;;;;;;4974896;28;20315;-90
2021/04/03 07:41:36;;;;;;;5.10;1.20;;;8.00;99.90;;;;;;4966583;28;20221;-91
2021/04/03 07:44:13;;;;;;;16.70;2.33;;;7.90;99.90;;;;;;4981589;28;20255;-91
2021/04/03 07:46:44;;;;;;;2.07;1.10;;;7.70;99.90;;;;;;4967603;28;20322;-90
2021/04/03 07:49:11;;;;;;;9.23;2.37;;;7.60;99.90;;;;;;4983603;28;20204;-87
2021/04/03 07:51:41;;;;;;;5.40;1.83;;;7.80;99.90;;;;;;4981615;28;20935;-92
2021/04/03 07:54:22;;;;;;;4.43;2.77;;;8.00;99.90;;;;;;4978882;28;20235;-93
2021/04/03 07:56:49;;;;;;;0.40;0.40;;;8.00;99.90;;;;;;4966747;28;20706;-87
2021/04/03 07:59:15;;;;;;;4.80;1.33;;;8.70;99.90;;;;;;4982616;28;20220;-89
2021/04/03 08:01:41;;;;;;;1.73;1.63;;;9.90;99.90;;;;;;4964188;28;20223;-90
2021/04/03 08:04:08;;;;;;;5.53;1.30;;;9.40;99.90;;;;;;4967143;28;20200;-90
2021/04/03 08:06:39;;;;;;;1.83;1.43;;;9.40;99.90;;;;;;4974994;28;20228;-90
2021/04/03 08:09:09;;;;;;;6.10;1.83;;;9.00;99.90;;;;;;4951239;28;20212;-91
2021/04/03 08:11:35;;;;;;;4.57;1.57;;;9.00;99.90;;;;;;4966580;28;21059;-87
2021/04/03 08:14:02;;;;;;;1.10;1.10;;;9.00;99.90;;;;;;4965737;28;20229;-86
2021/04/03 08:16:30;;;;;;;1.13;1.10;;;9.00;99.90;;;;;;4965987;28;20188;-88
2021/04/03 08:18:59;;;;;;;3.40;0.93;;;9.00;99.90;;;;;;4968403;28;20697;-87
2021/04/03 08:21:28;;;;;;;9.23;0.93;;;8.50;99.90;;;;;;4966090;28;21230;-88
2021/04/03 08:23:56;;;;;;;0.87;0.87;;;8.90;99.90;;;;;;4982062;28;20225;-89
2021/04/03 08:26:24;;;;;;;3.00;1.13;;;9.90;99.90;;;;;;4963285;28;20220;-90
2021/04/03 08:28:50;;;;;;;1.23;0.40;;;9.40;99.90;;;;;;4979651;28;20244;-89
2021/04/03 08:31:24;;;;;;;9.80;2.13;;;8.60;99.90;;;;;;4973978;28;20193;-89
2021/04/03 08:33:55;;;;;;;2.80;1.63;;;8.60;99.90;;;;;;4976400;28;20238;-90
2021/04/03 08:36:24;;;;;;;2.57;1.37;;;8.70;99.90;;;;;;4995161;28;20242;-89
2021/04/03 08:38:51;;;;;;;0.73;0.73;;;8.40;99.90;;;;;;4972357;28;20223;-89
2021/04/03 08:41:25;;;;;;;0.70;0.70;;;8.60;99.90;;;;;;4981818;28;20238;-88
2021/04/03 08:43:52;;;;;;;2.57;1.40;;;8.20;99.90;;;;;;5002102;28;20246;-92
2021/04/03 08:46:20;;;;;;;7.33;1.67;;;8.50;99.90;;;;;;4991253;28;20190;-91
2021/04/03 08:48:49;;;;;;;1.80;0.80;;;8.30;99.90;;;;;;4989722;28;20246;-90
2021/04/03 08:51:16;;;;;;;1.47;1.37;;;8.30;99.90;;;;;;4996216;28;20302;-90
2021/04/03 08:53:46;;;;;;;8.33;1.83;;;8.60;99.90;;;;;;4953524;28;20244;-90
2021/04/03 08:56:35;;;;;;;1.47;0.70;;;9.00;99.90;;;;;;4986048;28;20215;-91
2021/04/03 08:59:07;;;;;;;5.60;1.50;;;10.50;99.90;;;;;;4986905;28;20251;-89
2021/04/03 09:01:36;;;;;;;1.97;1.87;;;10.50;99.90;;;;;;4984783;28;20227;-90
2021/04/03 09:04:07;;;;;;;4.93;2.33;;;10.90;99.90;;;;;;4988504;28;20710;-90
2021/04/03 09:06:55;;;;;;;1.53;1.00;;;11.10;99.90;;;;;;4987288;28;20223;-91
2021/04/03 09:09:28;;;;;;;3.57;0.80;;;11.60;99.90;;;;;;5004562;28;20723;-91
2021/04/03 09:12:00;;;;;;;5.50;1.20;;;11.00;99.90;;;;;;5004666;28;20247;-90
2021/04/03 09:14:35;;;;;;;6.17;2.10;;;10.50;99.90;;;;;;5004764;28;20231;-91
2021/04/03 09:17:02;;;;;;;3.50;1.43;;;10.10;99.90;;;;;;4970736;28;20219;-89
2021/04/03 09:19:29;;;;;;;0.83;0.83;;;9.70;99.90;;;;;;4979158;28;20215;-89
2021/04/03 09:21:57;;;;;;;0.43;0.43;;;9.70;99.90;;;;;;4988093;28;20184;-90
2021/04/03 09:24:40;;;;;;;2.30;1.17;;;9.70;99.90;;;;;;4969244;28;20298;-89
2021/04/03 09:27:19;;;;;;;2.47;1.70;;;9.20;99.90;;;;;;5004229;28;20519;-89
2021/04/03 09:29:48;;;;;;;6.20;1.23;;;9.00;99.90;;;;;;4985619;28;20307;-88
2021/04/03 09:32:16;;;;;;;1.63;0.80;;;9.20;99.90;;;;;;5004515;28;20219;-91
2021/04/03 09:34:42;;;;;;;1.13;0.80;;;9.30;99.90;;;;;;4969770;28;20346;-89
2021/04/03 09:37:18;;;;;;;15.20;1.67;;;9.10;99.90;;;;;;4979218;28;20198;-91
2021/04/03 09:39:51;;;;;;;8.40;1.17;;;9.00;99.90;;;;;;5002799;28;20255;-89
2021/04/03 09:42:18;;;;;;;3.50;1.50;;;9.20;99.90;;;;;;4985876;28;20222;-88
2021/04/03 09:44:45;;;;;;;4.53;1.53;;;9.10;99.90;;;;;;4969193;28;20231;-88
2021/04/03 09:47:12;;;;;;;5.80;1.33;;;9.60;99.90;;;;;;5004790;28;20215;-91
2021/04/03 09:49:39;;;;;;;2.90;0.87;;;9.40;99.90;;;;;;4970363;28;20230;-92
2021/04/03 09:52:06;;;;;;;4.47;2.07;;;9.30;99.90;;;;;;4986941;28;20175;-90
2021/04/03 09:54:32;;;;;;;3.77;1.87;;;9.00;99.90;;;;;;4985583;28;20242;-89
2021/04/03 09:57:00;;;;;;;3.30;1.73;;;9.00;99.90;;;;;;4970092;28;20223;-91
2021/04/03 09:59:26;;;;;;;1.90;0.80;;;9.10;99.90;;;;;;4969123;28;20254;-88
2021/04/03 10:01:52;;;;;;;3.53;1.07;;;9.00;99.90;;;;;;4986702;28;20302;-89
2021/04/03 10:04:18;;;;;;;1.67;1.40;;;9.10;99.90;;;;;;4957037;28;20211;-90
2021/04/03 10:06:44;;;;;;;4.23;2.00;;;9.00;99.90;;;;;;4955485;28;20215;-91
2021/04/03 10:09:10;;;;;;;2.83;1.53;;;8.80;99.90;;;;;;4954232;28;21831;-89
2021/04/03 10:11:35;;;;;;;4.93;1.60;;;9.00;99.90;;;;;;4969886;28;20223;-88
2021/04/03 10:14:01;;;;;;;1.67;1.17;;;10.20;99.90;;;;;;4967205;28;21064;-86
2021/04/03 10:16:27;;;;;;;2.60;1.10;;;11.20;99.90;;;;;;5001788;28;20206;-89
2021/04/03 10:18:53;;;;;;;6.10;1.93;;;10.80;99.90;;;;;;5002676;28;20218;-88
2021/04/03 10:21:19;;;;;;;2.27;1.07;;;10.70;99.90;;;;;;4986504;28;20219;-91
2021/04/03 10:23:45;;;;;;;6.20;1.90;;;11.10;99.90;;;;;;4968079;28;20703;-90
2021/04/03 10:26:11;;;;;;;4.23;2.03;;;11.00;99.90;;;;;;4969447;28;21185;-90
2021/04/03 10:28:37;;;;;;;4.37;1.33;;;10.20;99.90;;;;;;4968768;28;20216;-90
2021/04/03 10:31:02;;;;;;;4.13;1.50;;;10.30;99.90;;;;;;4954179;28;20199;-88
2021/04/03 10:33:29;;;;;;;2.27;1.70;;;10.50;99.90;;;;;;4967281;28;20223;-86
2021/04/03 10:35:55;;;;;;;0.70;0.70;;;10.70;99.90;;;;;;4975964;28;20248;-87
2021/04/03 10:38:21;;;;;;;1.17;1.07;;;10.10;99.90;;;;;;4972744;28;20220;-91
2021/04/03 10:40:47;;;;;;;1.63;0.87;;;10.10;99.90;;;;;;4971786;28;20219;-86
2021/04/03 10:43:13;;;;;;;2.07;1.23;;;10.10;99.90;;;;;;4958219;28;21008;-87
2021/04/03 10:45:39;;;;;;;8.80;2.03;;;10.40;99.90;;;;;;4973338;28;20204;-89
2021/04/03 10:48:05;;;;;;;3.23;0.80;;;10.10;99.90;;;;;;4955611;28;20228;-88
2021/04/03 10:50:31;;;;;;;3.23;1.93;;;9.60;99.90;;;;;;4954457;28;20311;-92
2021/04/03 10:52:57;;;;;;;0.60;0.60;;;10.10;99.90;;;;;;4956334;28;20235;-87
2021/04/03 10:55:22;;;;;;;4.50;1.87;;;10.20;99.90;;;;;;4972286;28;20722;-89
2021/04/03 10:57:48;;;;;;;3.97;1.43;;;9.70;99.90;;;;;;4958760;28;21043;-88
2021/04/03 11:00:15;;;;;;;2.17;1.97;;;10.30;99.90;;;;;;4956723;28;20220;-89
2021/04/03 11:02:40;;;;;;;19.67;2.93;;;9.80;99.90;;;;;;4952580;28;20217;-90
2021/04/03 11:05:07;;;;;;;6.70;2.07;;;9.50;99.90;;;;;;4957799;28;20290;-89
2021/04/03 11:07:32;;;;;;;9.97;1.13;;;9.70;99.90;;;;;;4971536;28;20275;-91
2021/04/03 11:09:58;;;;;;;1.80;0.23;;;9.40;99.90;;;;;;4975055;28;20189;-91
2021/04/03 11:12:24;;;;;;;3.40;1.23;;;9.30;99.90;;;;;;4971836;28;20417;-89
2021/04/03 11:14:50;;;;;;;2.17;0.90;;;9.50;99.90;;;;;;4954548;28;20270;-89
2021/04/03 11:17:16;;;;;;;0.80;0.70;;;10.00;99.90;;;;;;4956135;28;20233;-87
2021/04/03 11:19:41;;;;;;;1.93;1.40;;;9.60;99.90;;;;;;4952829;28;20233;-89
2021/04/03 11:22:07;;;;;;;3.57;1.00;;;9.80;99.90;;;;;;4957143;28;20180;-89
2021/04/03 11:24:34;;;;;;;4.43;1.03;;;9.70;99.90;;;;;;4955928;28;20248;-91
2021/04/03 11:27:01;;;;;;;1.73;1.23;;;9.70;99.90;;;;;;4955158;28;20219;-90
2021/04/03 11:29:26;;;;;;;7.77;0.97;;;9.30;99.90;;;;;;4972138;28;20250;-90
2021/04/03 11:31:52;;;;;;;1.80;0.80;;;9.50;99.90;;;;;;4954070;28;20682;-88
2021/04/03 11:34:18;;;;;;;2.80;1.17;;;9.30;99.90;;;;;;4951728;28;20732;-92
2021/04/03 11:36:44;;;;;;;9.70;1.13;;;9.50;99.90;;;;;;4966277;28;20259;-92
2021/04/03 11:39:10;;;;;;;0.43;0.43;;;9.40;99.90;;;;;;4972890;28;20278;-94
2021/04/03 11:41:39;;;;;;;0.70;0.70;;;9.70;99.90;;;;;;4975151;28;20243;-91
2021/04/03 11:44:07;;;;;;;1.23;0.80;;;9.40;99.90;;;;;;4974274;28;20228;-92
2021/04/03 11:46:33;;;;;;;0.90;0.90;;;9.30;99.90;;;;;;4980896;28;20581;-92
2021/04/03 11:48:59;;;;;;;3.27;1.60;;;9.30;99.90;;;;;;4984212;28;20667;-92
2021/04/03 11:51:25;;;;;;;4.33;1.13;;;9.00;99.90;;;;;;4981393;28;20219;-88
2021/04/03 11:53:51;;;;;;;3.93;1.73;;;9.20;99.90;;;;;;4982685;28;20701;-89
2021/04/03 11:56:17;;;;;;;0.40;0.40;;;9.30;99.90;;;;;;4965547;28;20211;-89
2021/04/03 11:58:43;;;;;;;2.67;2.03;;;9.40;99.90;;;;;;4981370;28;20251;-88
2021/04/03 12:01:10;;;;;;;0.97;0.83;;;9.30;99.90;;;;;;4977381;28;20319;-89
2021/04/03 12:03:35;;;;;;;1.33;1.03;;;9.10;99.90;;;;;;4977299;28;20223;-87
2021/04/03 12:06:01;;;;;;;3.80;0.50;;;9.00;99.90;;;;;;4976648;28;20216;-90
2021/04/03 12:08:27;;;;;;;2.53;0.93;;;9.10;99.90;;;;;;4981813;28;20239;-89
2021/04/03 12:10:53;;;;;;;0.30;0.30;;;9.50;99.90;;;;;;4963621;28;20713;-89
2021/04/03 12:13:19;;;;;;;5.77;1.83;;;9.70;99.90;;;;;;4980543;28;20243;-90
2021/04/03 12:15:44;;;;;;;9.33;2.50;;;9.90;99.90;;;;;;4983363;28;20275;-89
2021/04/03 12:18:10;;;;;;;1.77;0.73;;;10.00;99.90;;;;;;4981642;28;20543;-91
2021/04/03 12:20:36;;;;;;;1.47;1.37;;;9.70;99.90;;;;;;4981566;28;20299;-88
2021/04/03 12:23:02;;;;;;;1.70;1.60;;;9.70;99.90;;;;;;4974000;28;20945;-88
2021/04/03 12:25:28;;;;;;;2.87;1.37;;;9.50;99.90;;;;;;4991008;28;20192;-87
2021/04/03 12:27:54;;;;;;;0.80;0.80;;;9.40;99.90;;;;;;4967810;28;20188;-88
2021/04/03 12:30:21;;;;;;;21.67;1.87;;;9.50;99.90;;;;;;4982569;28;20222;-87
2021/04/03 12:32:46;;;;;;;3.97;1.00;;;9.50;99.90;;;;;;4968737;28;20212;-88
2021/04/03 12:35:13;;;;;;;7.20;1.33;;;9.30;99.90;;;;;;4967854;28;20725;-87
2021/04/03 12:37:42;;;;;;;1.00;0.97;;;9.50;99.90;;;;;;4981560;28;20669;-88
2021/04/03 12:40:09;;;;;;;1.93;1.20;;;9.70;99.90;;;;;;4965381;28;20194;-87
2021/04/03 12:42:35;;;;;;;4.37;1.27;;;9.70;99.90;;;;;;4967743;28;20306;-86
2021/04/03 12:45:01;;;;;;;3.40;3.10;;;9.60;99.90;;;;;;4968707;28;20390;-85
2021/04/03 12:47:27;;;;;;;3.10;0.90;;;9.50;99.90;;;;;;4977410;28;20586;-90
2021/04/03 12:49:53;;;;;;;2.20;2.00;;;9.50;99.90;;;;;;4967820;28;20779;-89
2021/04/03 12:52:19;;;;;;;8.20;2.20;;;9.30;99.90;;;;;;4968549;28;20642;-89
2021/04/03 12:54:45;;;;;;;1.27;0.57;;;8.90;99.90;;;;;;4985565;28;20215;-88
2021/04/03 12:57:11;;;;;;;3.90;1.47;;;9.00;99.90;;;;;;4983328;28;20791;-87
2021/04/03 12:59:37;;;;;;;5.90;1.47;;;9.20;99.90;;;;;;4985022;28;20224;-86